Time;durP1;ratioP1;P1;durP2;ratioP2;P2;SDS_P1;SDS_P2;PMS_P1;PMS_P2;Temp;Humidity;BMP_temperature;BMP_pressure;BME280_temperature;BME280_humidity;BME280_pressure;Samples;Min_cycle;Max_cycle;Signal;HPM_P1;HPM_P2
2022/02/19 00:00:50;;;;;;;14.43;1.95;;;;;;;4.70;65.66;100253.56;5025489;28;20021;-77
2022/02/19 00:03:16;;;;;;;8.15;1.45;;;;;;;4.74;65.37;100262.63;5049089;28;20115;-77
2022/02/19 00:05:42;;;;;;;14.38;1.88;;;;;;;4.71;65.39;100272.34;5030649;28;20044;-77
2022/02/19 00:08:08;;;;;;;15.38;2.00;;;;;;;4.77;64.77;100264.16;5017521;28;20483;-75
2022/02/19 00:10:34;;;;;;;17.60;1.70;;;;;;;4.82;64.35;100261.97;5036968;28;20075;-75
2022/02/19 00:13:00;;;;;;;18.13;3.28;;;;;;;4.83;63.99;100272.13;5028239;28;20040;-78
2022/02/19 00:15:25;;;;;;;22.38;2.35;;;;;;;4.85;63.42;100293.38;5044044;28;20029;-76
2022/02/19 00:17:51;;;;;;;11.20;1.77;;;;;;;4.85;62.98;100298.50;5025121;28;20104;-75
2022/02/19 00:20:17;;;;;;;11.70;1.77;;;;;;;4.81;63.21;100281.72;5034643;28;20047;-77
2022/02/19 00:22:42;;;;;;;16.30;1.70;;;;;;;4.82;63.39;100288.50;5012986;28;20514;-76
2022/02/19 00:25:09;;;;;;;14.25;1.88;;;;;;;4.80;62.30;100287.81;5041825;28;20036;-76
2022/02/19 00:27:35;;;;;;;14.63;3.40;;;;;;;4.78;62.50;100297.38;5046390;28;20498;-76
2022/02/19 00:30:02;;;;;;;19.02;1.88;;;;;;;4.88;62.44;100316.22;5031756;28;20033;-77
2022/02/19 00:32:30;;;;;;;14.02;2.05;;;;;;;4.94;62.31;100307.19;5027748;28;20646;-76
2022/02/19 00:34:56;;;;;;;20.73;2.40;;;;;;;4.96;62.42;100304.50;5016066;28;20021;-76
2022/02/19 00:37:22;;;;;;;11.63;1.83;;;;;;;4.96;62.34;100304.50;5022766;28;20044;-76
2022/02/19 00:39:47;;;;;;;14.13;1.70;;;;;;;4.94;62.14;100307.19;5013299;28;20033;-76
2022/02/19 00:42:13;;;;;;;13.23;2.63;;;;;;;4.98;61.57;100307.75;5028964;28;20029;-76
2022/02/19 00:44:38;;;;;;;13.98;2.08;;;;;;;5.03;61.68;100308.97;5029725;28;20458;-77
2022/02/19 00:47:04;;;;;;;14.25;2.08;;;;;;;4.99;61.57;100330.75;5017468;28;20033;-77
2022/02/19 00:49:30;;;;;;;14.00;2.10;;;;;;;5.04;61.24;100328.56;5031685;28;20578;-75
2022/02/19 00:51:55;;;;;;;12.98;2.00;;;;;;;5.03;61.32;100321.81;5024074;28;20056;-77
2022/02/19 00:54:21;;;;;;;14.23;1.83;;;;;;;5.00;60.54;100336.69;5025649;28;20045;-78
2022/02/19 00:56:47;;;;;;;19.45;2.13;;;;;;;5.03;61.15;100349.28;5029190;28;20025;-77
2022/02/19 00:59:13;;;;;;;10.23;1.77;;;;;;;5.03;60.37;100349.28;5010650;28;20044;-76
2022/02/19 01:01:39;;;;;;;13.88;2.10;;;;;;;5.00;60.72;100342.63;5044480;28;20059;-75
2022/02/19 01:04:17;;;;;;;10.70;2.13;;;;;;;4.91;61.18;100356.25;5014944;28;20547;-75
2022/02/19 01:06:44;;;;;;;16.15;2.08;;;;;;;4.93;60.67;100354.38;5015809;28;20099;-76
2022/02/19 01:09:10;;;;;;;9.30;1.70;;;;;;;4.92;61.49;100368.19;5032623;28;20078;-75
2022/02/19 01:11:39;;;;;;;12.77;2.33;;;;;;;4.93;61.45;100379.25;5014748;28;20040;-76
2022/02/19 01:14:07;;;;;;;16.00;2.03;;;;;;;4.92;61.70;100375.88;5016591;28;20040;-76
2022/02/19 01:16:32;;;;;;;12.43;1.70;;;;;;;4.91;61.69;100366.53;5009046;28;20475;-76
2022/02/19 01:18:58;;;;;;;14.57;2.15;;;;;;;4.81;62.32;100371.66;5015942;28;20036;-76
2022/02/19 01:21:26;;;;;;;15.55;2.10;;;;;;;4.86;62.44;100382.34;5017522;28;20487;-78
2022/02/19 01:23:52;;;;;;;16.65;2.75;;;;;;;4.76;62.48;100372.97;5015351;28;20056;-78
2022/02/19 01:26:18;;;;;;;9.77;1.85;;;;;;;4.79;62.20;100370.97;5016473;28;20087;-78
2022/02/19 01:28:50;;;;;;;14.40;1.93;;;;;;;4.78;62.31;100389.88;5017857;23;20079;-69
2022/02/19 01:31:17;;;;;;;14.35;2.13;;;;;;;4.80;62.25;100384.63;5003119;28;20503;-69
2022/02/19 01:33:42;;;;;;;20.13;2.00;;;;;;;4.81;61.64;100383.69;5021511;28;20029;-69
2022/02/19 01:36:11;;;;;;;16.73;2.50;;;;;;;4.80;61.53;100382.88;5029997;28;20207;-69
2022/02/19 01:38:38;;;;;;;16.05;2.20;;;;;;;4.71;61.89;100391.34;5005859;28;20140;-69
2022/02/19 01:41:04;;;;;;;13.43;1.92;;;;;;;4.72;61.16;100387.81;5019414;28;20508;-70
2022/02/19 01:43:32;;;;;;;12.30;1.52;;;;;;;4.66;61.41;100407.13;5004876;28;20029;-71
2022/02/19 01:45:57;;;;;;;14.60;1.85;;;;;;;4.68;61.01;100402.69;5018847;28;20495;-70
2022/02/19 01:48:23;;;;;;;16.73;2.20;;;;;;;4.77;60.89;100413.16;5004945;28;20097;-69
2022/02/19 01:50:50;;;;;;;9.55;2.22;;;;;;;4.73;60.28;100414.31;5003531;28;20046;-69
2022/02/19 01:53:17;;;;;;;12.25;1.52;;;;;;;4.75;60.30;100433.00;5020946;28;20044;-70
2022/02/19 01:55:48;;;;;;;15.10;2.10;;;;;;;4.72;60.35;100420.41;5012418;28;20072;-69
2022/02/19 01:58:38;;;;;;;17.95;2.33;;;;;;;4.74;60.19;100455.28;5008798;28;20037;-70
2022/02/19 02:01:42;;;;;;;11.88;1.63;;;;;;;4.77;60.10;100452.47;5006742;28;20041;-69
2022/02/19 02:04:27;;;;;;;8.40;1.55;;;;;;;4.78;59.86;100461.81;5004344;28;20692;-70
2022/02/19 02:06:54;;;;;;;12.32;1.52;;;;;;;4.74;59.67;100451.91;5000123;28;20026;-69
2022/02/19 02:09:21;;;;;;;9.60;1.40;;;;;;;4.77;60.26;100467.91;4997930;28;20038;-69
2022/02/19 02:11:46;;;;;;;10.60;1.35;;;;;;;4.70;60.31;100473.66;4995867;28;20392;-69
2022/02/19 02:14:13;;;;;;;9.30;2.03;;;;;;;4.74;59.66;100475.03;5019696;28;20581;-71
2022/02/19 02:16:59;;;;;;;10.25;2.00;;;;;;;4.62;60.11;100464.81;5018159;28;20042;-68
2022/02/19 02:19:25;;;;;;;21.65;2.10;;;;;;;4.64;60.73;100486.06;5018716;28;20036;-69
2022/02/19 02:22:04;;;;;;;7.40;1.45;;;;;;;4.68;59.68;100490.00;5016650;28;20087;-69
2022/02/19 02:24:32;;;;;;;10.63;1.65;;;;;;;4.65;60.35;100494.56;5017395;28;20100;-69
2022/02/19 02:26:59;;;;;;;10.32;1.50;;;;;;;4.58;60.56;100496.03;5004271;28;20029;-70
2022/02/19 02:29:25;;;;;;;14.27;2.50;;;;;;;4.63;60.55;100486.19;5016632;28;20171;-69
2022/02/19 02:31:50;;;;;;;10.00;1.40;;;;;;;4.67;60.64;100498.66;5020433;28;20041;-70
2022/02/19 02:34:19;;;;;;;10.80;1.98;;;;;;;4.67;60.73;100508.94;5007030;28;20059;-69
2022/02/19 02:36:46;;;;;;;9.98;1.30;;;;;;;4.69;60.88;100529.38;4996239;28;20022;-69
2022/02/19 02:39:12;;;;;;;8.93;1.40;;;;;;;4.61;60.98;100521.44;5006909;28;20063;-71
2022/02/19 02:41:39;;;;;;;22.25;2.75;;;;;;;4.63;60.81;100527.28;5007820;28;20571;-70
2022/02/19 02:44:07;;;;;;;11.43;1.73;;;;;;;4.61;61.12;100524.81;5006080;28;20107;-69
2022/02/19 02:46:32;;;;;;;12.07;1.55;;;;;;;4.65;61.22;100543.38;5016335;28;20033;-71
2022/02/19 02:49:03;;;;;;;11.52;1.48;;;;;;;4.64;60.96;100534.88;5005770;28;20033;-70
2022/02/19 02:51:31;;;;;;;11.60;1.60;;;;;;;4.58;61.50;100542.25;5022383;28;20033;-69
2022/02/19 02:53:57;;;;;;;13.90;1.58;;;;;;;4.69;60.90;100544.78;4988771;28;20041;-69
2022/02/19 02:56:25;;;;;;;14.25;2.25;;;;;;;4.59;61.26;100554.97;5020189;28;20077;-70
2022/02/19 02:58:50;;;;;;;9.82;1.58;;;;;;;4.66;60.91;100553.53;5022009;28;20030;-69
2022/02/19 03:01:16;;;;;;;9.30;1.05;;;;;;;4.66;61.30;100565.56;4990857;28;20686;-69
2022/02/19 03:03:43;;;;;;;23.05;1.70;;;;;;;4.65;61.39;100558.78;5021276;28;20032;-69
2022/02/19 03:06:11;;;;;;;14.57;1.83;;;;;;;4.66;61.35;100568.13;5017177;28;20391;-69
2022/02/19 03:08:40;;;;;;;12.07;1.20;;;;;;;4.65;61.88;100567.34;5005632;28;20425;-69
2022/02/19 03:11:06;;;;;;;9.25;1.42;;;;;;;4.62;61.62;100566.75;5024515;28;20048;-70
2022/02/19 03:13:35;;;;;;;16.67;2.20;;;;;;;4.60;61.82;100582.28;5005674;28;20542;-69
2022/02/19 03:16:02;;;;;;;15.60;1.90;;;;;;;4.58;61.89;100593.63;5023272;28;20529;-70
2022/02/19 03:18:28;;;;;;;16.02;1.67;;;;;;;4.54;62.17;100587.09;5006796;28;20053;-70
2022/02/19 03:20:56;;;;;;;11.35;2.03;;;;;;;4.53;62.07;100595.75;5006311;28;20096;-68
2022/02/19 03:23:22;;;;;;;14.48;2.22;;;;;;;4.53;62.09;100588.84;5023553;28;20025;-69
2022/02/19 03:25:48;;;;;;;17.17;1.85;;;;;;;4.44;62.86;100607.53;4989153;28;20037;-69
2022/02/19 03:28:14;;;;;;;14.43;1.45;;;;;;;4.41;63.24;100616.31;5025861;28;20036;-69
2022/02/19 03:30:40;;;;;;;17.52;1.63;;;;;;;4.47;62.52;100615.81;5025055;28;20030;-69
2022/02/19 03:33:23;;;;;;;11.25;2.13;;;;;;;4.41;63.05;100629.16;4993008;28;20117;-69
2022/02/19 03:35:49;;;;;;;15.50;1.42;;;;;;;4.34;63.10;100635.69;5007983;28;20033;-68
2022/02/19 03:38:14;;;;;;;9.15;1.58;;;;;;;4.40;63.54;100636.97;5009952;28;20439;-68
2022/02/19 03:41:03;;;;;;;10.95;1.70;;;;;;;4.41;63.41;100641.19;5021624;28;20209;-69
2022/02/19 03:43:30;;;;;;;10.20;1.73;;;;;;;4.48;62.53;100660.28;5010397;28;20025;-69
2022/02/19 03:45:56;;;;;;;9.95;1.45;;;;;;;4.51;62.34;100654.09;4990970;28;20040;-71
2022/02/19 03:48:39;;;;;;;7.47;1.33;;;;;;;4.48;62.38;100662.84;5025082;28;20060;-70
2022/02/19 03:51:05;;;;;;;8.73;1.65;;;;;;;4.41;63.31;100666.84;5007921;28;20037;-69
2022/02/19 03:53:31;;;;;;;11.60;1.30;;;;;;;4.43;63.06;100683.75;5026545;28;20598;-69
2022/02/19 03:55:57;;;;;;;9.77;1.50;;;;;;;4.36;63.29;100689.50;5009630;28;20036;-69
2022/02/19 03:58:22;;;;;;;13.68;1.35;;;;;;;4.31;63.27;100689.03;5014664;28;20087;-70
2022/02/19 04:00:51;;;;;;;7.82;1.45;;;;;;;4.38;63.61;100703.03;4994441;28;20037;-70
2022/02/19 04:03:18;;;;;;;6.60;1.50;;;;;;;4.34;63.55;100715.28;5010102;28;20026;-69
2022/02/19 04:05:46;;;;;;;8.05;1.63;;;;;;;4.34;63.99;100711.91;5009600;28;20033;-69
2022/02/19 04:08:13;;;;;;;12.43;1.67;;;;;;;4.24;63.83;100725.44;5025782;28;20029;-69
2022/02/19 04:10:39;;;;;;;13.02;1.00;;;;;;;4.32;63.97;100731.75;5028481;28;20499;-69
2022/02/19 04:13:05;;;;;;;11.52;1.83;;;;;;;4.23;64.28;100726.34;5008922;28;20040;-69
2022/02/19 04:15:45;;;;;;;13.68;1.40;;;;;;;4.28;64.85;100744.81;5008678;28;20507;-69
2022/02/19 04:18:12;;;;;;;13.65;1.20;;;;;;;4.25;64.59;100768.13;5020626;28;20033;-69
2022/02/19 04:20:38;;;;;;;11.68;2.38;;;;;;;4.31;64.07;100756.56;5008140;28;20037;-70
2022/02/19 04:23:05;;;;;;;13.43;2.45;;;;;;;4.23;64.44;100759.72;4995037;28;20026;-69
2022/02/19 04:25:32;;;;;;;12.25;1.25;;;;;;;4.28;64.61;100767.09;4993006;28;20342;-70
2022/02/19 04:28:08;;;;;;;13.88;1.20;;;;;;;4.23;64.68;100774.31;5008701;28;20537;-69
2022/02/19 04:30:34;;;;;;;11.15;1.38;;;;;;;4.20;65.08;100793.34;5009272;28;20116;-69
2022/02/19 04:33:03;;;;;;;12.63;2.95;;;;;;;4.13;65.20;100787.03;5024987;28;20370;-68
2022/02/19 04:35:30;;;;;;;10.05;1.38;;;;;;;4.19;64.67;100786.56;5002093;28;20136;-69
2022/02/19 04:37:55;;;;;;;9.52;1.30;;;;;;;4.16;64.87;100797.03;5026882;28;20030;-69
2022/02/19 04:40:22;;;;;;;14.18;1.77;;;;;;;4.08;65.37;100797.63;5006348;28;20040;-68
2022/02/19 04:42:49;;;;;;;10.13;1.45;;;;;;;4.07;65.94;100808.84;5004939;28;20030;-69
2022/02/19 04:45:20;;;;;;;11.25;1.63;;;;;;;4.02;65.94;100820.38;5003698;28;20539;-69
2022/02/19 04:47:54;;;;;;;13.82;1.42;;;;;;;4.00;65.83;100817.91;5021965;28;20116;-68
2022/02/19 04:50:21;;;;;;;10.55;1.20;;;;;;;3.93;65.93;100823.59;5007751;28;20135;-69
2022/02/19 04:52:50;;;;;;;8.82;1.30;;;;;;;4.08;65.44;100830.19;5022478;28;20052;-69
2022/02/19 04:55:16;;;;;;;14.38;1.92;;;;;;;4.02;65.73;100838.34;5007925;28;20499;-68
2022/02/19 04:57:43;;;;;;;14.75;1.70;;;;;;;4.04;66.35;100844.97;5025649;28;20286;-69
2022/02/19 05:00:12;;;;;;;7.50;1.52;;;;;;;4.15;66.23;100839.06;5009234;28;20694;-69
2022/02/19 05:02:58;;;;;;;17.85;1.70;;;;;;;4.02;66.42;100844.28;5022266;28;20511;-70
2022/02/19 05:05:23;;;;;;;9.52;1.80;;;;;;;4.04;66.77;100857.81;4992393;28;20040;-69
2022/02/19 05:07:49;;;;;;;10.02;1.88;;;;;;;4.08;65.63;100864.34;5006171;28;20096;-69
2022/02/19 05:10:15;;;;;;;19.15;1.90;;;;;;;4.09;65.14;100862.63;5010104;28;20434;-69
2022/02/19 05:12:41;;;;;;;13.88;1.40;;;;;;;4.08;64.75;100854.09;5021467;28;20503;-69
2022/02/19 05:15:12;;;;;;;12.70;1.42;;;;;;;3.98;65.05;100865.16;5022953;28;20029;-70
2022/02/19 05:17:48;;;;;;;12.43;1.50;;;;;;;3.96;65.16;100869.56;5024267;28;20061;-69
2022/02/19 05:20:17;;;;;;;10.75;1.40;;;;;;;3.90;65.20;100873.41;5004949;28;20563;-69
2022/02/19 05:22:44;;;;;;;10.20;1.55;;;;;;;3.96;65.24;100865.25;5020957;28;20029;-70
2022/02/19 05:25:09;;;;;;;16.92;1.30;;;;;;;3.87;65.41;100881.31;5018548;28;20022;-69
2022/02/19 05:27:35;;;;;;;13.57;1.77;;;;;;;3.79;65.50;100874.16;4999717;28;20025;-70
2022/02/19 05:30:07;;;;;;;18.65;1.77;;;;;;;3.79;66.00;100879.31;5006218;28;20045;-69
2022/02/19 05:32:35;;;;;;;11.38;1.80;;;;;;;3.86;65.92;100877.09;5024207;28;20116;-69
2022/02/19 05:35:04;;;;;;;10.77;1.25;;;;;;;3.89;65.37;100887.16;5027754;28;20033;-70
2022/02/19 05:37:34;;;;;;;10.80;1.60;;;;;;;3.89;65.50;100885.41;5021868;28;20672;-69
2022/02/19 05:40:01;;;;;;;10.50;1.05;;;;;;;3.78;66.61;100877.66;5001911;28;20447;-69
2022/02/19 05:42:29;;;;;;;14.52;1.60;;;;;;;3.79;66.87;100893.88;5024634;28;20391;-69
2022/02/19 05:45:14;;;;;;;12.68;1.27;;;;;;;3.74;66.64;100888.25;5023147;28;20041;-70
2022/02/19 05:47:43;;;;;;;17.13;1.63;;;;;;;3.70;66.51;100897.91;5035650;28;20051;-69
2022/02/19 05:50:30;;;;;;;8.00;1.10;;;;;;;3.74;66.40;100893.38;5007049;28;20033;-69
2022/02/19 05:53:04;;;;;;;15.27;2.08;;;;;;;3.75;66.32;100884.75;5016964;28;20431;-69
2022/02/19 05:55:34;;;;;;;9.02;1.60;;;;;;;3.73;66.03;100902.84;5006540;28;20033;-70
2022/02/19 05:58:01;;;;;;;15.48;1.65;;;;;;;3.67;67.03;100896.38;5016170;28;20775;-69
2022/02/19 06:00:27;;;;;;;6.90;1.02;;;;;;;3.67;66.89;100892.97;5008107;28;20075;-69
2022/02/19 06:02:53;;;;;;;12.05;1.80;;;;;;;3.64;66.22;100888.91;5008180;28;20029;-70
2022/02/19 06:05:19;;;;;;;11.70;1.27;;;;;;;3.58;66.75;100899.59;5021391;28;20026;-69
2022/02/19 06:07:47;;;;;;;10.07;1.92;;;;;;;3.65;66.52;100910.22;5025007;28;20387;-69
2022/02/19 06:10:14;;;;;;;18.42;1.77;;;;;;;3.54;66.75;100908.41;5008646;28;20029;-69
2022/02/19 06:12:41;;;;;;;12.25;1.60;;;;;;;3.51;66.64;100911.22;5024475;28;20029;-69
2022/02/19 06:15:13;;;;;;;20.80;3.25;;;;;;;3.46;66.56;100920.97;5018002;28;20029;-69
2022/02/19 06:17:56;;;;;;;8.45;1.23;;;;;;;3.49;66.69;100939.50;5029630;28;20093;-70
2022/02/19 06:20:24;;;;;;;8.07;1.40;;;;;;;3.49;66.08;100921.56;5023087;28;20044;-69
2022/02/19 06:22:49;;;;;;;14.65;1.67;;;;;;;3.50;66.35;100928.34;5024660;28;20503;-69
2022/02/19 06:25:16;;;;;;;12.93;2.10;;;;;;;3.42;66.60;100933.16;5009274;28;20048;-69
2022/02/19 06:27:45;;;;;;;18.50;1.50;;;;;;;3.47;65.96;100932.88;4990523;28;20021;-69
2022/02/19 06:30:31;;;;;;;11.50;1.40;;;;;;;3.41;66.19;100948.66;5024008;28;21086;-69
2022/02/19 06:33:04;;;;;;;14.73;1.63;;;;;;;3.38;66.83;100961.69;5022937;28;20033;-69
2022/02/19 06:35:30;;;;;;;12.00;1.48;;;;;;;3.41;66.45;100954.63;5007288;28;20160;-69
2022/02/19 06:38:07;;;;;;;11.85;1.67;;;;;;;3.45;66.49;100965.50;5013917;28;20450;-69
2022/02/19 06:40:33;;;;;;;14.38;1.60;;;;;;;3.47;66.53;100966.19;5019641;28;20029;-69
2022/02/19 06:42:59;;;;;;;14.23;2.28;;;;;;;3.44;66.62;100968.97;5013300;28;20040;-69
2022/02/19 06:45:28;;;;;;;17.65;1.67;;;;;;;3.47;66.18;100967.00;4992532;28;20108;-70
2022/02/19 06:47:55;;;;;;;13.10;1.40;;;;;;;3.41;65.94;100982.81;5005002;28;20678;-69
2022/02/19 06:50:23;;;;;;;11.52;1.55;;;;;;;3.35;66.71;100965.28;5008666;28;20026;-69
2022/02/19 06:52:51;;;;;;;16.95;2.20;;;;;;;3.46;66.55;100985.88;5005396;28;20029;-69
2022/02/19 06:55:19;;;;;;;11.50;1.80;;;;;;;3.45;66.47;100989.38;5004399;28;20033;-70
2022/02/19 06:57:47;;;;;;;16.27;1.80;;;;;;;3.51;66.29;100995.81;5006715;28;20142;-69
2022/02/19 07:00:14;;;;;;;13.80;1.77;;;;;;;3.47;66.33;100981.59;5005185;28;20034;-71
2022/02/19 07:02:46;;;;;;;10.20;1.80;;;;;;;3.59;66.36;100985.03;4990738;28;20048;-70
2022/02/19 07:05:13;;;;;;;19.58;2.58;;;;;;;3.44;66.06;100992.03;5022624;28;20031;-70
2022/02/19 07:07:57;;;;;;;14.32;2.55;;;;;;;3.52;65.87;101000.00;5021526;28;20032;-68
2022/02/19 07:10:24;;;;;;;16.15;2.00;;;;;;;3.46;66.12;100985.88;5007652;28;20063;-69
2022/02/19 07:12:50;;;;;;;11.85;1.95;;;;;;;3.53;66.24;101006.78;5011317;28;20376;-69
2022/02/19 07:15:20;;;;;;;11.98;1.58;;;;;;;3.53;66.64;101019.63;5004201;28;20040;-69
2022/02/19 07:18:12;;;;;;;13.55;1.98;;;;;;;3.56;66.00;101021.13;5020984;28;20038;-68
2022/02/19 07:21:07;;;;;;;10.35;1.30;;;;;;;3.61;65.89;101042.97;5016659;28;20041;-69
2022/02/19 07:23:32;;;;;;;12.43;2.58;;;;;;;3.50;66.58;101036.03;5005560;28;20029;-69
2022/02/19 07:25:59;;;;;;;13.63;2.42;;;;;;;3.59;66.23;101042.28;5020651;28;20030;-69
2022/02/19 07:28:25;;;;;;;12.75;1.73;;;;;;;3.64;66.50;101054.78;5034117;28;20026;-69
2022/02/19 07:30:50;;;;;;;16.48;2.20;;;;;;;3.70;66.11;101047.47;5021129;28;20104;-69
2022/02/19 07:33:16;;;;;;;10.65;2.10;;;;;;;3.71;66.08;101045.72;4986135;28;20708;-69
2022/02/19 07:35:45;;;;;;;11.40;1.80;;;;;;;3.72;66.11;101057.66;4998611;28;20670;-69
2022/02/19 07:38:11;;;;;;;18.50;2.03;;;;;;;3.74;66.00;101062.69;5008042;28;20036;-69
2022/02/19 07:40:37;;;;;;;16.98;1.92;;;;;;;3.75;66.12;101064.28;4990743;28;20041;-69
2022/02/19 07:43:02;;;;;;;16.30;1.80;;;;;;;3.77;65.86;101076.13;5024968;28;20021;-69
2022/02/19 07:45:48;;;;;;;20.15;2.72;;;;;;;3.86;66.45;101090.03;5023557;28;20142;-69
2022/02/19 07:48:39;;;;;;;18.13;2.13;;;;;;;3.88;66.45;101081.31;5003853;28;20038;-68
2022/02/19 08:00:30;;;;;;;15.25;1.63;;;;;;;4.22;66.22;101114.94;5019703;28;20132;-71
2022/02/19 08:02:59;;;;;;;19.98;1.83;;;;;;;4.17;65.83;101119.53;4989423;28;20511;-70
2022/02/19 08:05:24;;;;;;;20.55;2.28;;;;;;;4.21;65.64;101125.28;4991683;28;20059;-69
2022/02/19 08:07:51;;;;;;;18.45;1.98;;;;;;;4.16;66.36;101130.72;5010854;28;20451;-69
2022/02/19 08:10:17;;;;;;;23.25;1.80;;;;;;;4.13;65.88;101133.53;5022751;28;20057;-69
2022/02/19 08:12:43;;;;;;;15.18;1.55;;;;;;;4.16;65.71;101137.63;5021507;28;20099;-69
2022/02/19 08:15:09;;;;;;;21.08;2.58;;;;;;;4.17;65.67;101147.78;5009266;28;20022;-70
2022/02/19 08:17:34;;;;;;;14.63;2.30;;;;;;;4.29;66.45;101143.53;5023530;28;20033;-69
2022/02/19 08:20:00;;;;;;;13.40;1.67;;;;;;;4.56;65.12;101140.81;5029027;28;20754;-69
2022/02/19 08:22:25;;;;;;;15.10;1.90;;;;;;;4.78;64.46;101136.69;5036301;28;20033;-68
2022/02/19 08:24:51;;;;;;;12.70;2.35;;;;;;;4.96;63.44;101153.38;5036548;28;20475;-68
2022/02/19 08:27:16;;;;;;;20.65;2.15;;;;;;;5.43;62.17;101140.53;5022753;28;20038;-69
2022/02/19 08:29:42;;;;;;;14.35;3.00;;;;;;;5.75;60.94;101143.25;5020811;28;20045;-69
2022/02/19 08:32:07;;;;;;;14.05;2.15;;;;;;;6.12;60.07;101143.06;5025237;28;20096;-70
2022/02/19 08:34:33;;;;;;;15.60;2.08;;;;;;;6.23;59.12;101144.78;5026337;28;20025;-71
2022/02/19 08:36:59;;;;;;;17.48;2.47;;;;;;;6.41;59.02;101147.69;5027132;28;20025;-69
2022/02/19 08:39:24;;;;;;;9.15;1.58;;;;;;;6.54;58.85;101150.94;5008797;28;20060;-69
2022/02/19 08:41:51;;;;;;;19.10;1.85;;;;;;;6.77;58.01;101145.72;5023782;28;20029;-69
2022/02/19 08:44:17;;;;;;;13.73;1.42;;;;;;;6.60;58.18;101147.06;4992422;28;20063;-69
2022/02/19 08:46:43;;;;;;;9.20;1.50;;;;;;;7.12;57.42;101148.03;5024715;28;20061;-69
2022/02/19 08:49:08;;;;;;;16.33;1.67;;;;;;;7.08;57.45;101151.78;5026857;28;20042;-70
2022/02/19 08:51:34;;;;;;;10.57;1.80;;;;;;;7.07;56.96;101151.94;5025392;28;20044;-69
2022/02/19 08:54:00;;;;;;;19.90;2.28;;;;;;;7.14;56.77;101163.38;5008792;28;20404;-69
2022/02/19 08:56:25;;;;;;;20.73;1.80;;;;;;;7.25;56.13;101153.00;5024437;28;20325;-69
2022/02/19 08:58:51;;;;;;;19.98;3.30;;;;;;;7.19;56.33;101167.22;5025945;28;20810;-70
2022/02/19 09:01:16;;;;;;;71.55;19.80;;;;;;;7.31;56.27;101169.75;5005870;28;20041;-69
2022/02/19 09:03:42;;;;;;;45.85;14.07;;;;;;;7.25;55.87;101173.63;5024452;28;20025;-70
2022/02/19 09:06:08;;;;;;;20.45;4.75;;;;;;;7.24;55.72;101179.75;5019713;28;20389;-70
2022/02/19 09:08:33;;;;;;;16.55;3.15;;;;;;;7.11;55.94;101163.63;5005885;28;20656;-68
2022/02/19 09:10:59;;;;;;;17.15;3.38;;;;;;;7.10;56.03;101180.03;5022828;28;20123;-69
2022/02/19 09:13:25;;;;;;;12.20;2.35;;;;;;;7.35;56.05;101171.97;5000964;28;20037;-70
2022/02/19 09:15:50;;;;;;;15.48;2.17;;;;;;;7.54;55.96;101178.19;5008026;28;20075;-70
2022/02/19 09:18:16;;;;;;;14.45;1.50;;;;;;;7.22;55.98;101172.13;5021974;28;20427;-70
2022/02/19 09:20:41;;;;;;;20.55;2.03;;;;;;;7.13;56.94;101172.88;5035009;28;20423;-69
2022/02/19 09:23:08;;;;;;;15.23;2.22;;;;;;;7.12;56.88;101188.47;5026984;28;20067;-70
2022/02/19 09:25:34;;;;;;;21.20;2.00;;;;;;;7.05;57.17;101183.00;5025934;28;20128;-69
2022/02/19 09:28:00;;;;;;;13.88;2.05;;;;;;;6.79;57.51;101172.19;5035157;28;20021;-69
2022/02/19 09:30:27;;;;;;;12.05;2.08;;;;;;;6.27;57.93;101178.84;5001829;28;20079;-69
2022/02/19 09:32:52;;;;;;;14.32;1.30;;;;;;;5.89;58.88;101180.00;5010985;28;20519;-69
2022/02/19 09:35:18;;;;;;;13.38;2.47;;;;;;;5.77;59.62;101192.03;5036200;28;20094;-69
2022/02/19 09:37:43;;;;;;;12.18;2.03;;;;;;;5.60;60.58;101172.72;5020422;28;20071;-69
2022/02/19 09:40:10;;;;;;;13.50;2.80;;;;;;;5.72;60.79;101165.84;5034584;28;20021;-70
2022/02/19 09:42:37;;;;;;;23.25;1.95;;;;;;;5.85;60.38;101175.06;5007883;28;20033;-69
2022/02/19 09:45:04;;;;;;;10.88;2.22;;;;;;;5.95;59.57;101176.94;5007576;28;20061;-69
2022/02/19 09:47:30;;;;;;;16.30;2.55;;;;;;;5.84;58.89;101170.88;5024905;28;20030;-69
2022/02/19 09:49:57;;;;;;;21.85;2.85;;;;;;;5.84;60.12;101183.75;5025486;28;20037;-69
2022/02/19 09:52:26;;;;;;;17.65;2.33;;;;;;;5.85;60.37;101198.25;5026924;28;20057;-69
2022/02/19 09:54:55;;;;;;;16.35;2.13;;;;;;;5.67;60.93;101184.19;5026196;28;20037;-71
2022/02/19 09:57:21;;;;;;;9.27;1.63;;;;;;;5.62;61.54;101191.44;5015069;28;20642;-69
2022/02/19 09:59:46;;;;;;;9.98;1.95;;;;;;;5.60;61.89;101188.97;5023870;28;20037;-70
2022/02/19 10:02:12;;;;;;;16.17;2.10;;;;;;;5.78;61.87;101191.09;5007898;28;20037;-69
2022/02/19 10:04:43;;;;;;;15.75;1.63;;;;;;;5.90;61.72;101190.19;5025402;28;20075;-70
2022/02/19 10:07:17;;;;;;;18.98;2.42;;;;;;;5.94;60.85;101178.72;5022354;28;20045;-69
2022/02/19 10:09:45;;;;;;;11.13;2.30;;;;;;;5.80;60.68;101186.66;5025289;28;20164;-69
2022/02/19 10:12:13;;;;;;;12.05;1.73;;;;;;;5.87;59.97;101192.97;5025349;28;20036;-70
2022/02/19 10:14:41;;;;;;;11.68;1.70;;;;;;;6.02;60.34;101188.47;5020640;28;20511;-70
2022/02/19 10:17:15;;;;;;;19.48;1.92;;;;;;;6.12;59.78;101192.00;5019796;28;20053;-70
2022/02/19 10:19:50;;;;;;;9.18;1.50;;;;;;;6.17;59.33;101202.72;5018322;28;20098;-70
2022/02/19 10:22:18;;;;;;;15.68;2.63;;;;;;;6.21;59.13;101196.41;5021176;28;20115;-69
2022/02/19 10:24:51;;;;;;;14.07;1.52;;;;;;;6.26;59.67;101215.88;5016679;28;20511;-69
2022/02/19 10:27:17;;;;;;;13.65;1.58;;;;;;;6.36;59.02;101215.03;5018810;28;20491;-69
2022/02/19 10:29:54;;;;;;;18.35;2.65;;;;;;;6.25;59.52;101212.44;5019889;28;20029;-69
2022/02/19 10:32:22;;;;;;;18.17;2.03;;;;;;;6.32;59.73;101216.19;5002506;28;20041;-69
2022/02/19 10:35:06;;;;;;;8.07;1.65;;;;;;;6.26;60.09;101226.97;5011815;28;20048;-69
2022/02/19 10:37:51;;;;;;;18.60;2.40;;;;;;;6.37;59.65;101218.44;5003770;28;20033;-70
2022/02/19 10:40:27;;;;;;;13.82;1.63;;;;;;;6.47;58.57;101219.34;5020532;28;20462;-70
2022/02/19 10:42:57;;;;;;;7.63;1.67;;;;;;;6.49;59.21;101237.28;5017496;28;20514;-70
2022/02/19 10:45:24;;;;;;;11.38;1.85;;;;;;;6.28;57.90;101230.25;5019417;28;20093;-70
2022/02/19 10:47:51;;;;;;;14.68;1.63;;;;;;;6.40;58.14;101221.59;5021931;28;20033;-69
2022/02/19 10:50:19;;;;;;;14.07;3.72;;;;;;;6.57;58.81;101222.03;5000742;28;20129;-69
2022/02/19 10:52:52;;;;;;;14.80;2.35;;;;;;;6.79;59.53;101228.91;5023730;28;20037;-69
2022/02/19 10:55:19;;;;;;;15.02;2.05;;;;;;;6.71;58.74;101229.50;5003258;28;20077;-71
2022/02/19 10:57:46;;;;;;;13.50;2.08;;;;;;;6.67;58.66;101224.69;5022328;28;20041;-70
2022/02/19 11:00:17;;;;;;;9.27;1.38;;;;;;;6.73;59.38;101234.56;5004038;28;20044;-69
2022/02/19 11:02:46;;;;;;;16.15;1.38;;;;;;;6.72;58.36;101233.72;5023156;28;20037;-69
2022/02/19 11:05:13;;;;;;;15.25;1.75;;;;;;;6.79;57.40;101226.31;5017060;28;20057;-70
2022/02/19 11:07:41;;;;;;;11.38;1.33;;;;;;;6.63;57.43;101237.03;5000414;28;20041;-70
2022/02/19 11:10:13;;;;;;;16.10;1.80;;;;;;;6.55;57.48;101232.44;5020984;28;20100;-71
2022/02/19 11:12:38;;;;;;;11.52;2.33;;;;;;;6.61;56.44;101231.16;5021273;28;20041;-71
2022/02/19 11:15:06;;;;;;;13.75;2.25;;;;;;;6.78;57.01;101237.56;5021616;28;20577;-70
2022/02/19 11:17:34;;;;;;;11.27;1.63;;;;;;;6.98;57.03;101230.84;5017513;28;20021;-70
2022/02/19 11:20:10;;;;;;;10.73;1.52;;;;;;;6.96;57.56;101237.88;5022465;28;20040;-69
2022/02/19 11:22:38;;;;;;;12.63;2.25;;;;;;;6.92;58.26;101239.88;5023249;28;20037;-69
2022/02/19 11:25:07;;;;;;;13.27;1.42;;;;;;;7.08;56.80;101243.81;5003148;28;20173;-69
2022/02/19 11:27:38;;;;;;;33.63;11.98;;;;;;;7.07;55.56;101243.00;5001795;28;20083;-70
2022/02/19 11:30:07;;;;;;;17.38;5.82;;;;;;;7.07;53.92;101244.78;5019904;28;20029;-69
2022/02/19 11:32:37;;;;;;;16.33;4.75;;;;;;;7.02;55.06;101242.56;5015912;28;20124;-70
2022/02/19 11:35:03;;;;;;;12.95;2.55;;;;;;;7.18;54.90;101229.25;5007157;28;20052;-72
2022/02/19 11:37:29;;;;;;;8.93;1.88;;;;;;;7.21;54.19;101245.31;5022712;28;20060;-69
2022/02/19 11:40:11;;;;;;;13.15;1.95;;;;;;;7.15;54.82;101244.97;5021821;28;20040;-70
2022/02/19 11:42:38;;;;;;;8.57;2.13;;;;;;;7.19;54.59;101246.38;5020609;28;20304;-69